Time;durP1;ratioP1;P1;durP2;ratioP2;P2;SDS_P1;SDS_P2;PMS_P1;PMS_P2;Temp;Humidity;BMP_temperature;BMP_pressure;BME280_temperature;BME280_humidity;BME280_pressure;Samples;Min_cycle;Max_cycle;Signal;HPM_P1;HPM_P2
2021/05/07 00:01:23;;;;;;;0.40;0.20;;;10.80;99.90;;;;;;5093182;28;20366;-75
2021/05/07 00:03:49;;;;;;;0.40;0.20;;;;;;;;;;5092300;28;20889;-77
2021/05/07 00:06:15;;;;;;;0.40;0.20;;;;;;;;;;5092902;28;20370;-74
2021/05/07 00:08:42;;;;;;;0.40;0.20;;;;;;;;;;5093028;28;20457;-75
2021/05/07 00:11:14;;;;;;;0.40;0.20;;;11.00;99.90;;;;;;5092289;28;20435;-77
2021/05/07 00:13:41;;;;;;;0.40;0.20;;;;;;;;;;5093149;28;20476;-74
2021/05/07 00:16:07;;;;;;;0.40;0.20;;;;;;;;;;5092170;28;20423;-74
2021/05/07 00:18:33;;;;;;;0.40;0.20;;;10.80;99.90;;;;;;5092817;28;20758;-76
2021/05/07 00:20:59;;;;;;;0.40;0.20;;;11.10;99.90;;;;;;5092229;28;20742;-74
2021/05/07 00:23:25;;;;;;;0.40;0.20;;;10.60;99.90;;;;;;5092844;28;20390;-74
2021/05/07 00:25:52;;;;;;;0.40;0.20;;;;;;;;;;5091940;28;20838;-78
2021/05/07 00:28:19;;;;;;;0.60;0.50;;;;;;;;;;5091680;28;20385;-75
2021/05/07 00:30:45;;;;;;;0.40;0.20;;;;;;;;;;5092712;28;20457;-75
2021/05/07 00:33:11;;;;;;;0.40;0.20;;;;;;;;;;5091599;28;21267;-75
2021/05/07 00:35:37;;;;;;;0.40;0.20;;;;;;;;;;5092228;28;20370;-79
2021/05/07 00:38:03;;;;;;;0.40;0.20;;;11.00;99.90;;;;;;5091643;28;20502;-75
2021/05/07 00:40:29;;;;;;;0.40;0.20;;;10.30;99.90;;;;;;5092554;28;20381;-75
2021/05/07 00:42:55;;;;;;;0.40;0.20;;;;;;;;;;5091272;28;20378;-76
2021/05/07 00:45:21;;;;;;;0.40;0.20;;;;;;;;;;5092122;28;20874;-74
2021/05/07 00:47:49;;;;;;;0.40;0.20;;;;;;;;;;5092102;28;20367;-76
2021/05/07 00:50:15;;;;;;;0.40;0.20;;;;;;;;;;5091843;28;20378;-73
2021/05/07 00:52:42;;;;;;;0.40;0.20;;;;;;;;;;5092020;28;20386;-75
2021/05/07 00:55:09;;;;;;;0.40;0.20;;;;;;;;;;5091373;28;20424;-75
2021/05/07 00:57:35;;;;;;;0.40;0.20;;;;;;;;;;5091639;28;20393;-85
2021/05/07 01:00:01;;;;;;;0.40;0.20;;;;;;;;;;5091236;28;20374;-77
2021/05/07 01:02:27;;;;;;;0.40;0.20;;;9.70;99.90;;;;;;5091485;28;20427;-85
2021/05/07 01:04:53;;;;;;;0.40;0.20;;;;;;;;;;5090883;28;20378;-77
2021/05/07 01:07:20;;;;;;;0.40;0.20;;;;;;;;;;5092078;28;20366;-83
2021/05/07 01:09:49;;;;;;;0.40;0.20;;;;;;;;;;5091943;28;20374;-82
2021/05/07 01:12:15;;;;;;;0.40;0.20;;;;;;;;;;5073465;28;20397;-80
2021/05/07 01:14:40;;;;;;;0.40;0.20;;;9.00;99.90;;;;;;5091450;28;20426;-81
2021/05/07 01:17:07;;;;;;;0.40;0.20;;;;;;;;;;5090655;28;20874;-83
2021/05/07 01:19:32;;;;;;;0.40;0.20;;;;;;;;;;5091128;28;20413;-81
2021/05/07 01:21:58;;;;;;;0.40;0.20;;;;;;;;;;5090665;28;20889;-86
2021/05/07 01:24:29;;;;;;;0.40;0.20;;;9.00;99.90;;;;;;5091209;28;20366;-84
2021/05/07 01:26:55;;;;;;;0.40;0.20;;;;;;;;;;5090798;28;20488;-82
2021/05/07 01:29:22;;;;;;;0.40;0.20;;;;;;;;;;5091189;28;20377;-85
2021/05/07 01:31:53;;;;;;;0.40;0.20;;;;;;;;;;5073127;28;20734;-84
2021/05/07 01:34:21;;;;;;;0.40;0.20;;;;;;;;;;5090795;28;20450;-87
2021/05/07 01:36:47;;;;;;;0.40;0.20;;;9.40;99.90;;;;;;5072943;28;20378;-84
2021/05/07 01:39:12;;;;;;;0.40;0.20;;;9.10;99.90;;;;;;5090075;28;20413;-84
2021/05/07 01:41:38;;;;;;;0.40;0.20;;;;;;;;;;5072663;28;20386;-86
2021/05/07 01:44:04;;;;;;;0.40;0.20;;;;;;;;;;5090106;28;20386;-85
2021/05/07 01:46:30;;;;;;;0.40;0.20;;;;;;;;;;5091200;28;20793;-84
2021/05/07 01:48:56;;;;;;;0.40;0.20;;;9.30;99.90;;;;;;5090096;28;20374;-85
2021/05/07 01:51:22;;;;;;;0.40;0.20;;;;;;;;;;5072204;28;20474;-83
2021/05/07 01:53:48;;;;;;;0.40;0.20;;;;;;;;;;5090788;28;20382;-85
2021/05/07 01:56:14;;;;;;;0.40;0.20;;;9.40;99.90;;;;;;5089973;28;20366;-80
2021/05/07 01:58:39;;;;;;;0.40;0.20;;;9.00;99.90;;;;;;5090338;28;20410;-81
2021/05/07 02:01:05;;;;;;;0.40;0.20;;;;;;;;;;5105604;28;20416;-78
2021/05/07 02:03:31;;;;;;;0.40;0.20;;;;;;;;;;5090566;28;20385;-81
2021/05/07 02:05:57;;;;;;;0.40;0.20;;;;;;;;;;5089974;28;20370;-78
2021/05/07 02:08:23;;;;;;;0.40;0.20;;;;;;;;;;5090875;28;20712;-77
2021/05/07 02:10:49;;;;;;;0.40;0.20;;;;;;;;;;5090663;28;20678;-81
2021/05/07 02:13:15;;;;;;;0.40;0.20;;;;;;;;;;5090190;28;20453;-78
2021/05/07 02:15:41;;;;;;;0.40;0.20;;;9.40;99.90;;;;;;5090777;28;20449;-81
2021/05/07 02:18:08;;;;;;;0.40;0.20;;;9.20;99.90;;;;;;5090085;28;20513;-79
2021/05/07 02:20:34;;;;;;;0.40;0.20;;;8.90;99.90;;;;;;5090394;28;20497;-77
2021/05/07 02:23:00;;;;;;;0.40;0.20;;;;;;;;;;5071090;28;20742;-78
2021/05/07 02:25:27;;;;;;;0.40;0.20;;;9.20;99.90;;;;;;5090429;28;20424;-78
2021/05/07 02:27:54;;;;;;;0.40;0.20;;;;;;;;;;5090018;28;20746;-78
2021/05/07 02:30:22;;;;;;;0.40;0.20;;;;;;;;;;5071468;28;20373;-76
2021/05/07 02:32:47;;;;;;;0.40;0.20;;;8.90;99.90;;;;;;5090490;28;20537;-75
2021/05/07 02:35:14;;;;;;;0.40;0.20;;;8.90;99.90;;;;;;5089540;28;20443;-77
2021/05/07 02:37:40;;;;;;;0.40;0.20;;;9.20;99.90;;;;;;5090117;28;20852;-77
2021/05/07 02:40:07;;;;;;;0.40;0.20;;;;;;;;;;5071713;28;20723;-77
2021/05/07 02:42:33;;;;;;;0.40;0.20;;;9.30;99.90;;;;;;5089825;28;20878;-76
2021/05/07 02:45:03;;;;;;;0.40;0.20;;;;;;;;;;5089298;28;20394;-75
2021/05/07 02:47:30;;;;;;;0.40;0.20;;;9.00;99.90;;;;;;5090643;28;20434;-75
2021/05/07 02:49:57;;;;;;;0.40;0.20;;;;;;;;;;5089830;28;20394;-77
2021/05/07 02:52:22;;;;;;;0.40;0.20;;;9.30;99.90;;;;;;5094056;28;20416;-76
2021/05/07 02:54:48;;;;;;;0.40;0.20;;;;;;;;;;5094266;28;20378;-78
2021/05/07 02:57:14;;;;;;;0.40;0.20;;;;;;;;;;5093829;28;20499;-77
2021/05/07 02:59:40;;;;;;;0.40;0.20;;;9.30;99.90;;;;;;5093727;28;20500;-77
2021/05/07 03:02:06;;;;;;;0.40;0.20;;;9.30;99.90;;;;;;5093269;28;20889;-77
2021/05/07 03:04:32;;;;;;;0.40;0.20;;;;;;;;;;5094080;28;20385;-75
2021/05/07 03:06:59;;;;;;;0.40;0.20;;;;;;;;;;5075601;28;20386;-77
2021/05/07 03:09:25;;;;;;;0.40;0.20;;;;;;;;;;5093975;28;20382;-78
2021/05/07 03:11:53;;;;;;;0.40;0.20;;;;;;;;;;5093958;28;20881;-77
2021/05/07 03:14:19;;;;;;;0.40;0.20;;;;;;;;;;5093193;28;20401;-78
2021/05/07 03:16:45;;;;;;;0.40;0.20;;;;;;;;;;5094200;28;20453;-80
2021/05/07 03:19:11;;;;;;;0.40;0.20;;;8.80;99.90;;;;;;5092787;28;20412;-80
2021/05/07 03:21:37;;;;;;;0.40;0.20;;;9.40;99.90;;;;;;5093834;28;20382;-79
2021/05/07 03:24:04;;;;;;;0.40;0.20;;;9.20;99.90;;;;;;5093036;28;20749;-77
2021/05/07 03:26:30;;;;;;;0.40;0.20;;;9.30;99.90;;;;;;5074362;28;20390;-76
2021/05/07 03:28:56;;;;;;;0.40;0.20;;;;;;;;;;5093752;28;20389;-77
2021/05/07 03:31:22;;;;;;;0.40;0.20;;;;;;;;;;5092795;28;20397;-76
2021/05/07 03:33:48;;;;;;;0.40;0.20;;;;;;;;;;5075333;28;20494;-76
2021/05/07 03:36:15;;;;;;;0.40;0.20;;;;;;;;;;5074405;28;20374;-78
2021/05/07 03:38:41;;;;;;;0.40;0.20;;;;;;;;;;5093481;28;20747;-76
2021/05/07 03:41:07;;;;;;;0.40;0.20;;;9.20;99.90;;;;;;5092562;28;20745;-77
2021/05/07 03:43:33;;;;;;;0.40;0.20;;;8.80;99.90;;;;;;5093944;28;20373;-77
2021/05/07 03:45:59;;;;;;;0.40;0.20;;;;;;;;;;5094552;28;20517;-75
2021/05/07 03:48:25;;;;;;;0.40;0.20;;;;;;;;;;5093820;28;20374;-77
2021/05/07 03:50:52;;;;;;;0.40;0.20;;;;;;;;;;5099209;28;20386;-80
2021/05/07 03:53:18;;;;;;;0.40;0.20;;;;;;;;;;5097673;28;20381;-79
2021/05/07 03:55:45;;;;;;;0.40;0.20;;;;;;;;;;5099371;28;20374;-77
2021/05/07 03:58:11;;;;;;;0.40;0.20;;;;;;;;;;5095637;28;20402;-77
2021/05/07 04:00:38;;;;;;;0.40;0.20;;;9.00;99.90;;;;;;5095465;28;20370;-76
2021/05/07 04:03:04;;;;;;;0.40;0.20;;;;;;;;;;5096634;28;20382;-74
2021/05/07 04:05:30;;;;;;;0.40;0.20;;;9.00;99.90;;;;;;5095554;28;20382;-75
2021/05/07 04:08:20;;;;;;;0.40;0.20;;;;;;;;;;5093842;28;20375;-76
2021/05/07 04:10:44;;;;;;;0.40;0.20;;;8.90;99.90;;;;;;5092509;28;20829;-76
2021/05/07 04:15:56;;;;;;;0.40;0.20;;;;;;;;;;5093453;28;20365;-75
2021/05/07 04:18:22;;;;;;;0.40;0.20;;;;;;;;;;5092494;28;20409;-78
2021/05/07 04:20:48;;;;;;;0.40;0.20;;;;;;;;;;5093125;28;20382;-76
2021/05/07 04:23:14;;;;;;;0.40;0.20;;;;;;;;;;5092253;28;20397;-76
2021/05/07 04:25:40;;;;;;;0.40;0.40;;;;;;;;;;5092797;28;20362;-81
2021/05/07 04:28:06;;;;;;;0.60;0.50;;;;;;;;;;5092441;28;20381;-78
2021/05/07 04:30:32;;;;;;;0.40;0.20;;;;;;;;;;5095921;28;20374;-80
2021/05/07 04:32:58;;;;;;;0.40;0.20;;;;;;;;;;5099996;28;20419;-82
2021/05/07 04:35:24;;;;;;;0.40;0.20;;;;;;;;;;5077572;28;20827;-82
2021/05/07 04:37:50;;;;;;;0.40;0.20;;;8.80;99.90;;;;;;5097176;28;20431;-82
2021/05/07 04:40:16;;;;;;;0.40;0.20;;;;;;;;;;5092856;28;20382;-77
2021/05/07 04:42:42;;;;;;;0.40;0.20;;;;;;;;;;5092766;28;20457;-76
2021/05/07 04:45:09;;;;;;;0.40;0.20;;;;;;;;;;5091444;28;20410;-81
2021/05/07 04:47:35;;;;;;;0.40;0.20;;;;;;;;;;5092758;28;20373;-81
2021/05/07 04:50:01;;;;;;;0.40;0.20;;;;;;;;;;5092715;28;20421;-82
2021/05/07 04:52:27;;;;;;;0.40;0.20;;;9.20;99.90;;;;;;5091882;28;20375;-83
2021/05/07 04:54:53;;;;;;;0.40;0.20;;;;;;;;;;5092682;28;20390;-81
2021/05/07 04:57:19;;;;;;;0.40;0.20;;;;;;;;;;5091697;28;20434;-86
2021/05/07 04:59:45;;;;;;;0.40;0.20;;;;;;;;;;5092516;28;20806;-82
2021/05/07 05:02:10;;;;;;;0.40;0.20;;;7.90;99.90;;;;;;5091504;28;20366;-76
2021/05/07 05:04:36;;;;;;;0.40;0.20;;;7.50;99.90;;;;;;5074046;28;20750;-83
2021/05/07 05:07:03;;;;;;;0.40;0.20;;;;;;;;;;5092270;28;20422;-81
2021/05/07 05:09:29;;;;;;;0.40;0.20;;;;;;;;;;5073642;28;20377;-82
2021/05/07 05:11:55;;;;;;;0.40;0.20;;;;;;;;;;5091916;28;20388;-79
2021/05/07 05:14:21;;;;;;;0.40;0.20;;;;;;;;;;5090760;28;20905;-82
2021/05/07 05:16:47;;;;;;;0.40;0.20;;;;;;;;;;5091889;28;20362;-76
2021/05/07 05:19:13;;;;;;;0.40;0.20;;;;;;;;;;5090990;28;20758;-80
2021/05/07 05:21:38;;;;;;;0.40;0.20;;;6.80;99.90;;;;;;5091815;28;20385;-80
2021/05/07 05:24:05;;;;;;;0.40;0.20;;;;;;;;;;5091884;28;20443;-79
2021/05/07 05:26:30;;;;;;;0.40;0.20;;;6.80;99.90;;;;;;5091011;28;20370;-81
2021/05/07 05:28:56;;;;;;;0.40;0.20;;;6.80;99.90;;;;;;5073583;28;20431;-77
2021/05/07 05:31:22;;;;;;;0.40;0.20;;;;;;;;;;5072704;28;20382;-78
2021/05/07 05:33:48;;;;;;;0.40;0.20;;;;;;;;;;5091652;28;20393;-79
2021/05/07 05:36:14;;;;;;;0.40;0.20;;;;;;;;;;5090759;28;20374;-78
2021/05/07 05:38:40;;;;;;;0.40;0.20;;;;;;;;;;5091533;28;20432;-78
2021/05/07 05:41:06;;;;;;;0.40;0.20;;;;;;;;;;5090974;28;20603;-78
2021/05/07 05:43:32;;;;;;;0.40;0.20;;;;;;;;;;5090212;28;20366;-79
2021/05/07 05:45:58;;;;;;;0.40;0.20;;;;;;;;;;5069217;28;20426;-80
2021/05/07 05:48:25;;;;;;;0.40;0.20;;;;;;;;;;5070432;28;20375;-80
2021/05/07 05:50:51;;;;;;;0.40;0.20;;;;;;;;;;5070945;28;20457;-81
2021/05/07 05:53:18;;;;;;;0.40;0.20;;;;;;;;;;5070461;28;20384;-80
2021/05/07 05:55:44;;;;;;;0.40;0.20;;;;;;;;;;5071048;28;20382;-83
2021/05/07 05:58:11;;;;;;;0.40;0.20;;;;;;;;;;5070499;28;20407;-79
2021/05/07 06:00:37;;;;;;;0.40;0.20;;;;;;;;;;5069951;28;20376;-80
2021/05/07 06:03:04;;;;;;;0.40;0.20;;;;;;;;;;5070317;28;20412;-79
2021/05/07 06:05:30;;;;;;;0.40;0.20;;;;;;;;;;5070159;28;20919;-80
2021/05/07 06:07:56;;;;;;;0.40;0.20;;;6.90;99.90;;;;;;5070500;28;20436;-80
2021/05/07 06:10:22;;;;;;;0.40;0.20;;;7.40;99.90;;;;;;5068523;28;20927;-80
2021/05/07 06:12:48;;;;;;;0.40;0.20;;;;;;;;;;5070764;28;20383;-80
2021/05/07 06:15:16;;;;;;;0.40;0.20;;;7.20;99.90;;;;;;5070290;28;20461;-78
2021/05/07 06:17:43;;;;;;;0.40;0.20;;;;;;;;;;5070608;28;20851;-80
2021/05/07 06:20:10;;;;;;;0.40;0.20;;;6.60;99.90;;;;;;5070381;28;20482;-77
2021/05/07 06:22:36;;;;;;;0.40;0.20;;;6.80;99.90;;;;;;5069103;28;20396;-80
2021/05/07 06:25:06;;;;;;;0.40;0.20;;;7.00;99.90;;;;;;5069790;28;20816;-80
2021/05/07 06:27:32;;;;;;;0.40;0.20;;;6.70;99.90;;;;;;5069930;28;20379;-79
2021/05/07 06:29:58;;;;;;;0.40;0.20;;;6.80;99.90;;;;;;5070443;28;20387;-80
2021/05/07 06:32:24;;;;;;;0.40;0.20;;;;;;;;;;5068609;28;20745;-79
2021/05/07 06:34:50;;;;;;;0.40;0.20;;;6.90;99.90;;;;;;5070845;28;20922;-80
2021/05/07 06:37:17;;;;;;;0.40;0.20;;;;;;;;;;5069872;28;20459;-80
2021/05/07 06:39:43;;;;;;;0.40;0.20;;;6.80;99.90;;;;;;5070290;28;20921;-81
2021/05/07 06:42:09;;;;;;;0.40;0.20;;;6.90;99.90;;;;;;5071590;28;20379;-80
2021/05/07 06:44:34;;;;;;;0.40;0.20;;;6.70;99.90;;;;;;5077813;28;20389;-80
2021/05/07 06:47:01;;;;;;;0.40;0.20;;;;;;;;;;5075981;28;20435;-79
2021/05/07 06:49:27;;;;;;;0.40;0.20;;;;;;;;;;5090281;28;20385;-79
2021/05/07 06:51:53;;;;;;;0.40;0.20;;;;;;;;;;5107254;28;20379;-81
2021/05/07 06:54:26;;;;;;;0.40;0.20;;;;;;;;;;5090861;28;20452;-81
2021/05/07 06:56:52;;;;;;;0.40;0.20;;;;;;;;;;5093072;28;20377;-81
2021/05/07 06:59:18;;;;;;;0.40;0.20;;;7.00;99.90;;;;;;5106871;28;20416;-81
2021/05/07 07:01:44;;;;;;;0.40;0.20;;;;;;;;;;5095966;28;20380;-79
2021/05/07 07:04:10;;;;;;;0.40;0.20;;;6.90;99.90;;;;;;5083139;28;20385;-81
2021/05/07 07:06:36;;;;;;;0.40;0.20;;;;;;;;;;5100089;28;20376;-81
2021/05/07 07:09:02;;;;;;;0.40;0.20;;;6.80;99.90;;;;;;5092287;28;20762;-79
2021/05/07 07:11:27;;;;;;;0.40;0.20;;;6.90;99.90;;;;;;5090225;28;20378;-81
2021/05/07 07:13:53;;;;;;;0.40;0.20;;;;;;;;;;5090695;28;20370;-81
2021/05/07 07:16:19;;;;;;;0.40;0.20;;;;;;;;;;5090040;28;20367;-81
2021/05/07 07:18:45;;;;;;;0.40;0.20;;;7.30;99.90;;;;;;5090731;28;20459;-82
2021/05/07 07:21:11;;;;;;;0.40;0.20;;;7.10;99.90;;;;;;5101676;28;20878;-80
2021/05/07 07:23:37;;;;;;;0.40;0.20;;;;;;;;;;5076497;28;20949;-81
2021/05/07 07:26:05;;;;;;;0.40;0.20;;;;;;;;;;5078274;28;20426;-81
2021/05/07 07:28:31;;;;;;;0.40;0.20;;;;;;;;;;5092469;28;20368;-81
2021/05/07 07:30:57;;;;;;;0.40;0.20;;;;;;;;;;5091616;28;20413;-81
2021/05/07 07:33:24;;;;;;;0.40;0.20;;;;;;;;;;5090729;28;20370;-81
2021/05/07 07:35:50;;;;;;;0.40;0.20;;;;;;;;;;5091860;28;20406;-82
2021/05/07 07:38:16;;;;;;;0.40;0.20;;;;;;;;;;5074416;28;20405;-78
2021/05/07 07:40:42;;;;;;;0.40;0.20;;;;;;;;;;5093559;28;20390;-80
2021/05/07 07:43:08;;;;;;;0.40;0.20;;;;;;;;;;5092813;28;20370;-80
2021/05/07 07:45:34;;;;;;;0.40;0.20;;;;;;;;;;5091150;28;20390;-80
2021/05/07 07:48:00;;;;;;;0.40;0.20;;;;;;;;;;5093201;28;20401;-80
2021/05/07 07:50:26;;;;;;;0.40;0.20;;;;;;;;;;5092104;28;20374;-80
2021/05/07 07:52:52;;;;;;;0.40;0.20;;;;;;;;;;5093242;28;20423;-81
2021/05/07 07:55:18;;;;;;;0.40;0.20;;;;;;;;;;5092341;28;20358;-80
2021/05/07 07:57:44;;;;;;;0.40;0.20;;;7.70;99.90;;;;;;5093342;28;20370;-80
2021/05/07 08:00:11;;;;;;;0.40;0.20;;;;;;;;;;5092812;28;20410;-81
2021/05/07 08:02:37;;;;;;;0.40;0.20;;;;;;;;;;5092215;28;20688;-79
2021/05/07 08:05:04;;;;;;;0.40;0.20;;;;;;;;;;5092677;28;20390;-80
2021/05/07 08:07:30;;;;;;;0.40;0.20;;;;;;;;;;5089720;28;20369;-80
2021/05/07 08:09:55;;;;;;;0.40;0.20;;;7.40;99.90;;;;;;5093101;28;20370;-81
2021/05/07 08:12:21;;;;;;;0.40;0.20;;;;;;;;;;5092242;28;20375;-79
2021/05/07 08:14:47;;;;;;;0.40;0.30;;;;;;;;;;5092517;28;20363;-80
2021/05/07 08:17:13;;;;;;;0.40;0.20;;;;;;;;;;5092760;28;20850;-79
2021/05/07 08:19:39;;;;;;;0.40;0.20;;;;;;;;;;5095006;28;20414;-79
2021/05/07 08:22:05;;;;;;;0.40;0.20;;;7.60;99.90;;;;;;5110533;28;20381;-79
2021/05/07 08:24:31;;;;;;;0.40;0.20;;;;;;;;;;5105346;28;20378;-79
2021/05/07 08:26:58;;;;;;;0.40;0.20;;;;;;;;;;5098740;28;20364;-79
2021/05/07 08:29:24;;;;;;;0.40;0.20;;;;;;;;;;5100697;28;20423;-80
2021/05/07 08:31:50;;;;;;;0.40;0.20;;;;;;;;;;5108081;28;20379;-79
2021/05/07 08:34:16;;;;;;;0.40;0.20;;;;;;;;;;5093211;28;20378;-78
2021/05/07 08:36:43;;;;;;;0.40;0.20;;;;;;;;;;5094100;28;20377;-78
2021/05/07 08:39:09;;;;;;;0.40;0.20;;;;;;;;;;5091254;28;20398;-77
2021/05/07 08:41:38;;;;;;;0.40;0.20;;;;;;;;;;5091175;28;20428;-76
2021/05/07 08:44:05;;;;;;;0.40;0.20;;;;;;;;;;5091881;28;20449;-76
2021/05/07 08:46:31;;;;;;;0.40;0.20;;;;;;;;;;5092726;28;20413;-76
2021/05/07 08:48:57;;;;;;;0.40;0.20;;;;;;;;;;5088672;28;20394;-77
2021/05/07 08:51:23;;;;;;;0.40;0.20;;;;;;;;;;5092046;28;20378;-78
2021/05/07 08:53:49;;;;;;;0.40;0.20;;;;;;;;;;5086291;28;21120;-77
2021/05/07 08:56:15;;;;;;;0.40;0.20;;;;;;;;;;5080192;28;20422;-78
2021/05/07 08:58:41;;;;;;;0.40;0.20;;;;;;;;;;5077764;28;20452;-79
2021/05/07 09:01:07;;;;;;;0.40;0.20;;;;;;;;;;5075949;28;20529;-76
2021/05/07 09:03:46;;;;;;;0.40;0.20;;;;;;;;;;5072928;28;20432;-76
2021/05/07 09:06:18;;;;;;;0.40;0.20;;;;;;;;;;5078617;28;20782;-76
2021/05/07 09:08:46;;;;;;;0.40;0.20;;;7.70;99.90;;;;;;5091597;28;20457;-75
2021/05/07 09:11:12;;;;;;;0.40;0.20;;;;;;;;;;5092623;28;20410;-75
2021/05/07 09:13:38;;;;;;;0.40;0.20;;;;;;;;;;5091441;28;20392;-75
2021/05/07 09:16:08;;;;;;;0.40;0.20;;;;;;;;;;5091366;28;20806;-74
2021/05/07 09:18:44;;;;;;;0.40;0.20;;;;;;;;;;5072378;28;20410;-76
2021/05/07 09:21:11;;;;;;;0.40;0.20;;;;;;;;;;5091762;28;20387;-75
2021/05/07 09:23:44;;;;;;;0.40;0.20;;;8.40;99.90;;;;;;5090782;28;20370;-77
2021/05/07 09:26:10;;;;;;;0.40;0.20;;;8.10;99.90;;;;;;5091604;28;20424;-76
2021/05/07 09:28:37;;;;;;;0.40;0.20;;;8.70;99.90;;;;;;5090465;28;20448;-76
2021/05/07 09:31:13;;;;;;;0.40;0.20;;;;;;;;;;5090525;28;20739;-76
2021/05/07 09:33:43;;;;;;;0.40;0.20;;;8.70;99.90;;;;;;5090377;28;20354;-76
2021/05/07 09:36:21;;;;;;;0.40;0.20;;;8.50;99.90;;;;;;5107297;28;20389;-76
2021/05/07 09:38:46;;;;;;;0.40;0.20;;;8.80;99.90;;;;;;5091389;28;20409;-76
2021/05/07 09:41:12;;;;;;;0.40;0.20;;;;;;;;;;5091651;28;20390;-78
2021/05/07 09:43:38;;;;;;;0.40;0.20;;;8.90;99.90;;;;;;5090522;28;21006;-76
2021/05/07 09:46:04;;;;;;;0.40;0.20;;;;;;;;;;5090900;28;20449;-77
2021/05/07 09:48:30;;;;;;;0.57;0.57;;;;;;;;;;5090213;28;20464;-77
2021/05/07 09:50:58;;;;;;;0.40;0.20;;;8.90;99.90;;;;;;5091278;28;20397;-76
2021/05/07 09:53:29;;;;;;;0.40;0.20;;;9.00;99.90;;;;;;5090324;28;20386;-76
2021/05/07 09:56:00;;;;;;;0.40;0.20;;;;;;;;;;5091288;28;20386;-77
2021/05/07 09:58:29;;;;;;;0.40;0.20;;;;;;;;;;5089919;28;20885;-77
2021/05/07 10:00:56;;;;;;;0.40;0.20;;;10.00;99.90;;;;;;5090615;28;20731;-77
2021/05/07 10:03:23;;;;;;;0.40;0.20;;;;;;;;;;5090142;28;20378;-78
2021/05/07 10:05:51;;;;;;;0.40;0.20;;;10.10;99.90;;;;;;5090994;28;20401;-79
2021/05/07 10:08:17;;;;;;;0.40;0.20;;;;;;;;;;5091055;28;20518;-76
2021/05/07 10:10:43;;;;;;;0.40;0.20;;;9.50;99.90;;;;;;5089853;28;21199;-77
2021/05/07 10:13:17;;;;;;;0.40;0.20;;;10.10;99.90;;;;;;5091242;28;20386;-76
2021/05/07 10:15:44;;;;;;;0.40;0.20;;;;;;;;;;5090045;28;20381;-77
2021/05/07 10:18:11;;;;;;;0.40;0.20;;;;;;;;;;5090934;28;20439;-76
2021/05/07 10:20:39;;;;;;;0.40;0.20;;;10.30;99.90;;;;;;5090291;28;20474;-76
2021/05/07 10:23:16;;;;;;;0.40;0.20;;;;;;;;;;5090298;28;20394;-77
2021/05/07 10:25:52;;;;;;;0.40;0.20;;;;;;;;;;5089989;28;20370;-77
2021/05/07 10:28:18;;;;;;;0.40;0.20;;;;;;;;;;5090162;28;20423;-77
2021/05/07 10:30:44;;;;;;;0.40;0.20;;;10.40;99.90;;;;;;5089672;28;20374;-75
2021/05/07 10:33:19;;;;;;;0.40;0.20;;;10.70;99.90;;;;;;5072667;28;20382;-76
2021/05/07 10:35:57;;;;;;;0.40;0.20;;;;;;;;;;5105780;28;20383;-77
2021/05/07 10:38:23;;;;;;;0.70;0.60;;;;;;;;;;5089994;28;20902;-77
2021/05/07 10:41:02;;;;;;;0.50;0.50;;;10.90;99.90;;;;;;5090588;28;20445;-76
2021/05/07 10:43:38;;;;;;;0.40;0.20;;;10.40;99.90;;;;;;5089706;28;20461;-76
2021/05/07 10:46:05;;;;;;;0.40;0.20;;;;;;;;;;5090166;28;20562;-78
2021/05/07 10:48:31;;;;;;;0.40;0.20;;;;;;;;;;5090225;28;20769;-76
2021/05/07 10:51:02;;;;;;;0.40;0.20;;;10.90;99.90;;;;;;5088156;28;20378;-74
2021/05/07 10:53:30;;;;;;;0.40;0.20;;;;;;;;;;5090536;28;20935;-74
2021/05/07 10:55:57;;;;;;;0.40;0.20;;;;;;;;;;5090656;28;20366;-75
2021/05/07 10:58:32;;;;;;;0.40;0.20;;;;;;;;;;5088643;28;20920;-79
2021/05/07 11:00:58;;;;;;;0.40;0.20;;;11.20;99.90;;;;;;5089022;28;20469;-75
2021/05/07 11:03:24;;;;;;;0.40;0.20;;;;;;;;;;5089780;28;20461;-79
2021/05/07 11:05:52;;;;;;;0.40;0.20;;;10.70;99.90;;;;;;5090338;28;20398;-75
2021/05/07 11:08:19;;;;;;;0.40;0.20;;;10.80;99.90;;;;;;5090596;28;20386;-74
2021/05/07 11:10:48;;;;;;;0.40;0.20;;;11.10;99.90;;;;;;5089712;28;20378;-75
2021/05/07 11:13:15;;;;;;;0.40;0.20;;;10.70;99.90;;;;;;5094482;28;20382;-76
2021/05/07 11:15:41;;;;;;;0.90;0.70;;;;;;;;;;5093523;28;20393;-75
2021/05/07 11:18:10;;;;;;;0.40;0.20;;;;;;;;;;5094342;28;20374;-75
2021/05/07 11:20:41;;;;;;;0.40;0.20;;;11.00;99.90;;;;;;5093589;28;20388;-76
2021/05/07 11:23:11;;;;;;;0.40;0.20;;;10.80;99.90;;;;;;5094432;28;20416;-75
2021/05/07 11:25:38;;;;;;;0.50;0.50;;;;;;;;;;5092942;28;20404;-73
2021/05/07 11:28:18;;;;;;;0.40;0.28;;;;;;;;;;5093726;28;20397;-77
2021/05/07 11:30:55;;;;;;;0.40;0.20;;;11.10;99.90;;;;;;5092705;28;20394;-73
2021/05/07 11:33:22;;;;;;;0.40;0.30;;;;;;;;;;5093512;28;20386;-76
2021/05/07 11:36:11;;;;;;;0.40;0.20;;;10.70;99.90;;;;;;5092816;28;20378;-76
2021/05/07 11:38:39;;;;;;;0.40;0.20;;;10.40;99.90;;;;;;5073986;28;20426;-76
2021/05/07 11:41:15;;;;;;;0.40;0.20;;;;;;;;;;5093333;28;20424;-76
2021/05/07 11:43:41;;;;;;;0.40;0.20;;;;;;;;;;5072761;28;20371;-76
2021/05/07 11:46:08;;;;;;;0.40;0.20;;;;;;;;;;5093166;28;20408;-76
2021/05/07 11:48:35;;;;;;;0.40;0.20;;;10.90;99.90;;;;;;5075086;28;20862;-77
2021/05/07 11:51:08;;;;;;;0.40;0.20;;;;;;;;;;5094160;28;20405;-77
2021/05/07 11:53:34;;;;;;;0.40;0.20;;;;;;;;;;5092599;28;20366;-77
2021/05/07 11:56:01;;;;;;;0.40;0.20;;;;;;;;;;5087092;28;20770;-75
2021/05/07 11:58:37;;;;;;;0.40;0.20;;;;;;;;;;5064759;28;20441;-75
2021/05/07 12:01:06;;;;;;;0.40;0.20;;;;;;;;;;5081524;28;20374;-76
2021/05/07 12:03:36;;;;;;;0.40;0.20;;;;;;;;;;5080241;28;20378;-76
2021/05/07 12:06:13;;;;;;;0.40;0.20;;;;;;;;;;5078152;28;20424;-76
2021/05/07 12:08:39;;;;;;;0.40;0.20;;;;;;;;;;5079683;28;21303;-75
2021/05/07 12:11:09;;;;;;;0.40;0.20;;;;;;;;;;5079678;28;20461;-76
2021/05/07 12:13:35;;;;;;;0.40;0.20;;;;;;;;;;5079041;28;20371;-77
2021/05/07 12:16:01;;;;;;;0.40;0.20;;;;;;;;;;5077429;28;20420;-76
2021/05/07 12:18:27;;;;;;;0.40;0.20;;;;;;;;;;5087680;28;20402;-76
2021/05/07 12:20:57;;;;;;;0.40;0.20;;;11.40;99.90;;;;;;5093158;28;20409;-74
2021/05/07 12:23:24;;;;;;;0.40;0.20;;;11.40;99.90;;;;;;5073755;28;20459;-75
2021/05/07 12:25:50;;;;;;;0.40;0.20;;;13.20;99.90;;;;;;5091780;28;20394;-75
2021/05/07 12:28:18;;;;;;;0.40;0.20;;;14.70;93.70;;;;;;5092106;28;20858;-75
2021/05/07 12:30:45;;;;;;;0.40;0.20;;;;;;;;;;5091831;28;20374;-76
2021/05/07 12:33:18;;;;;;;0.40;0.20;;;13.70;95.70;;;;;;5092233;28;20434;-76
2021/05/07 12:35:45;;;;;;;0.40;0.20;;;;;;;;;;5091507;28;20731;-78
2021/05/07 12:40:52;;;;;;;0.40;0.20;;;12.60;95.30;;;;;;5091623;28;20791;-76
2021/05/07 12:43:18;;;;;;;0.40;0.20;;;11.70;92.50;;;;;;5092080;28;20374;-76
2021/05/07 12:45:47;;;;;;;0.40;0.20;;;12.00;90.80;;;;;;5091271;28;20487;-76
2021/05/07 12:48:13;;;;;;;0.40;0.30;;;;;;;;;;5092862;28;20390;-75
2021/05/07 12:50:38;;;;;;;0.40;0.20;;;11.70;95.50;;;;;;5091374;28;20382;-76
2021/05/07 12:53:12;;;;;;;0.40;0.20;;;11.70;94.50;;;;;;5074050;28;20394;-75
2021/05/07 12:55:39;;;;;;;0.40;0.20;;;12.00;92.20;;;;;;5091469;28;20434;-76
2021/05/07 12:58:05;;;;;;;0.40;0.20;;;11.70;91.10;;;;;;5097076;28;20365;-76
2021/05/07 13:00:31;;;;;;;0.40;0.20;;;11.70;90.80;;;;;;5111670;28;20372;-76
2021/05/07 13:02:57;;;;;;;0.40;0.20;;;;;;;;;;5093208;28;20376;-76
2021/05/07 13:05:23;;;;;;;0.40;0.20;;;;;;;;;;5092220;28;20457;-74
2021/05/07 13:07:50;;;;;;;0.40;0.20;;;12.70;93.50;;;;;;5091392;28;20358;-77
2021/05/07 13:10:15;;;;;;;0.40;0.20;;;12.30;87.40;;;;;;5091988;28;20454;-75
2021/05/07 13:12:41;;;;;;;0.40;0.20;;;12.80;93.40;;;;;;5091288;28;20378;-77
2021/05/07 13:15:07;;;;;;;0.40;0.20;;;;;;;;;;5074268;28;20723;-75
2021/05/07 13:17:36;;;;;;;0.40;0.20;;;12.80;92.50;;;;;;5091293;28;20862;-77
2021/05/07 13:20:03;;;;;;;0.40;0.20;;;;;;;;;;5092588;28;20724;-74
2021/05/07 13:22:29;;;;;;;0.40;0.20;;;12.60;89.00;;;;;;5090092;28;20375;-81
2021/05/07 13:24:55;;;;;;;0.40;0.20;;;12.80;88.90;;;;;;5092245;28;20426;-76
2021/05/07 13:27:21;;;;;;;0.40;0.20;;;12.40;85.60;;;;;;5091820;28;20374;-75
2021/05/07 13:29:47;;;;;;;0.40;0.20;;;;;;;;;;5091192;28;20386;-75
2021/05/07 13:32:26;;;;;;;0.40;0.20;;;;;;;;;;5091941;28;20402;-74
2021/05/07 13:35:24;;;;;;;0.40;0.20;;;;;;;;;;5072766;28;20374;-72
2021/05/07 13:37:50;;;;;;;0.40;0.20;;;;;;;;;;5072368;28;20909;-76
2021/05/07 13:40:18;;;;;;;0.40;0.20;;;;;;;;;;5091601;28;20480;-75
2021/05/07 13:42:44;;;;;;;0.40;0.20;;;;;;;;;;5091222;28;20378;-75
2021/05/07 13:45:11;;;;;;;0.40;0.20;;;;;;;;;;5091567;28;20417;-74
2021/05/07 13:47:38;;;;;;;0.40;0.20;;;;;;;;;;5091172;28;20854;-75
2021/05/07 13:50:05;;;;;;;0.40;0.20;;;13.10;81.50;;;;;;5091491;28;20389;-75
2021/05/07 13:52:31;;;;;;;0.40;0.20;;;;;;;;;;5107344;28;20877;-77
2021/05/07 13:54:58;;;;;;;0.60;0.47;;;;;;;;;;5091654;28;20381;-74
2021/05/07 13:57:24;;;;;;;0.40;0.20;;;;;;;;;;5091315;28;20464;-74
2021/05/07 13:59:50;;;;;;;0.40;0.20;;;15.30;76.20;;;;;;5090689;28;20531;-74
2021/05/07 14:02:15;;;;;;;0.40;0.20;;;14.80;86.60;;;;;;5091702;28;20435;-74
2021/05/07 14:04:42;;;;;;;0.40;0.20;;;;;;;;;;5090942;28;20378;-74
2021/05/07 14:07:08;;;;;;;0.40;0.20;;;;;;;;;;5091294;28;20374;-74